X  Chiuso Dati meteorologici dell'aviazione (METAR)     EDDG Münster Osnabrück Airport
Temperatura
13°C Temperatura
10°C Punto di rugiada
82% Umidità



Vento
11 KM/O
7 MPH
3 M/S
6 KTS



230°
SW
Condizioni attuali

Chiaro Docce di pioggia Pioggia Chiaro Docce di pioggia Pioggia
Pressione 1010.92 (hPa) - 29.85 (inHg)
Visibilità 6.2 (miglio) - 10 (km)
Aeroporto
Codice-Aeroporto EDDG

Posizione: Münster Osnabrück Airport
Distanza: 45 (km)

Metar:
EDDG 012020Z AUTO 23006KT 9999 -SHRA FEW037 FEW///CB 13/10 Q1011 TEMPO 25012KT SHRA BKN015TCU

Ore: 01-10-2022 22:20 CEST